Time;durP1;ratioP1;P1;durP2;ratioP2;P2;SDS_P1;SDS_P2;PMS_P1;PMS_P2;Temp;Humidity;BMP_temperature;BMP_pressure;BME280_temperature;BME280_humidity;BME280_pressure;Samples;Min_cycle;Max_cycle;Signal;HPM_P1;HPM_P2
2021/01/15 00:02:55;;;;;;;11.70;6.82;;;;;;;1.43;76.38;102314.09;10093223;28;20464;-68
2021/01/15 00:07:50;;;;;;;13.13;7.00;;;;;;;1.49;75.78;102300.81;10101589;28;20043;-69
2021/01/15 00:12:46;;;;;;;12.27;6.50;;;;;;;1.45;75.52;102306.63;10103136;28;20137;-70
2021/01/15 00:17:42;;;;;;;11.10;6.00;;;;;;;1.42;75.16;102307.06;10095819;28;20054;-69
2021/01/15 00:22:43;;;;;;;11.18;6.15;;;;;;;1.41;74.09;102302.72;10102729;28;20057;-69
2021/01/15 00:27:39;;;;;;;12.35;7.00;;;;;;;1.50;74.61;102297.06;10105553;28;20066;-70
2021/01/15 00:32:36;;;;;;;12.05;6.47;;;;;;;1.53;75.42;102291.22;10091228;28;20238;-68
2021/01/15 00:37:33;;;;;;;11.88;6.57;;;;;;;1.44;75.16;102283.44;10094487;28;20096;-68
2021/01/15 00:42:31;;;;;;;10.70;6.55;;;;;;;1.30;75.59;102279.19;10088233;28;20066;-71
2021/01/15 00:47:31;;;;;;;13.07;6.70;;;;;;;1.28;76.02;102281.25;10098292;28;20070;-70
2021/01/15 00:52:27;;;;;;;12.27;6.93;;;;;;;1.25;76.29;102284.38;10103362;28;20057;-71
2021/01/15 00:57:23;;;;;;;11.98;6.70;;;;;;;1.31;75.55;102286.22;10099800;28;20424;-70
2021/01/15 01:02:19;;;;;;;12.65;7.30;;;;;;;1.41;75.71;102288.41;10104569;28;20058;-70
2021/01/15 01:07:15;;;;;;;11.82;6.57;;;;;;;1.45;75.56;102293.16;10111930;28;20071;-70
2021/01/15 01:12:11;;;;;;;12.07;7.20;;;;;;;1.42;74.43;102299.00;10110828;28;20053;-71
2021/01/15 01:17:07;;;;;;;12.40;6.10;;;;;;;1.49;74.17;102312.44;10107722;28;20170;-70
2021/01/15 01:22:03;;;;;;;11.07;6.85;;;;;;;1.31;73.57;102310.47;10108478;28;20453;-69
2021/01/15 01:26:59;;;;;;;12.48;7.18;;;;;;;1.27;74.53;102311.94;10111448;28;20047;-67
2021/01/15 01:31:55;;;;;;;13.52;6.70;;;;;;;1.28;75.30;102316.28;10109283;28;20051;-70
2021/01/15 01:36:51;;;;;;;16.08;7.22;;;;;;;1.19;75.89;102317.59;10106738;28;20054;-67
2021/01/15 01:41:47;;;;;;;14.10;7.95;;;;;;;1.17;76.52;102325.06;10092113;28;20524;-71
2021/01/15 01:46:43;;;;;;;14.00;7.85;;;;;;;1.12;77.64;102327.56;10103821;28;20048;-69
2021/01/15 01:51:40;;;;;;;12.32;7.78;;;;;;;1.21;77.69;102331.69;10096734;28;20480;-70
2021/01/15 01:56:38;;;;;;;15.90;8.55;;;;;;;1.21;78.08;102332.50;10092210;28;20051;-69
2021/01/15 02:01:34;;;;;;;14.13;8.95;;;;;;;1.03;78.60;102333.19;10109320;28;20089;-71
2021/01/15 02:06:32;;;;;;;16.92;9.50;;;;;;;1.13;79.19;102340.00;10100321;28;20058;-70
2021/01/15 02:11:59;;;;;;;17.15;9.65;;;;;;;1.29;78.67;102327.91;10096921;28;20051;-69
2021/01/15 02:16:56;;;;;;;16.85;9.90;;;;;;;1.24;78.59;102337.44;10097868;28;20468;-72
2021/01/15 02:22:20;;;;;;;16.85;10.05;;;;;;;1.24;79.36;102331.22;10105536;28;20414;-71
2021/01/15 02:27:56;;;;;;;17.13;10.23;;;;;;;1.16;80.03;102331.47;10099481;28;20130;-68
2021/01/15 02:32:59;;;;;;;18.10;11.23;;;;;;;1.19;79.44;102331.06;10099689;28;20470;-68
2021/01/15 02:38:01;;;;;;;17.38;10.32;;;;;;;1.20;79.16;102333.50;10100043;28;20405;-70
2021/01/15 02:43:02;;;;;;;17.30;10.20;;;;;;;1.17;79.66;102339.34;10095687;28;20054;-69
2021/01/15 02:48:03;;;;;;;19.08;11.27;;;;;;;1.26;79.84;102345.31;10098077;28;20536;-69
2021/01/15 02:53:00;;;;;;;19.05;10.65;;;;;;;1.24;79.79;102344.72;10103378;28;20125;-69
2021/01/15 02:57:56;;;;;;;18.67;11.57;;;;;;;1.20;79.90;102346.16;10093310;28;20525;-69
2021/01/15 03:03:13;;;;;;;16.90;10.20;;;;;;;1.24;79.53;102348.22;10103479;28;20043;-71
2021/01/15 03:08:12;;;;;;;16.42;9.48;;;;;;;1.38;79.03;102340.88;10102622;28;20051;-68
2021/01/15 03:13:09;;;;;;;18.35;9.85;;;;;;;1.46;78.51;102348.72;10095803;28;20074;-69
2021/01/15 03:18:06;;;;;;;16.63;9.40;;;;;;;1.37;78.24;102368.03;10101170;28;20444;-69
2021/01/15 03:23:03;;;;;;;20.45;8.82;;;;;;;1.32;78.52;102366.00;10100320;28;20142;-70
2021/01/15 03:27:59;;;;;;;19.40;8.57;;;;;;;1.16;78.22;102369.19;10103544;28;20079;-69
2021/01/15 03:33:01;;;;;;;19.38;9.30;;;;;;;1.31;78.59;102374.31;10118322;28;20053;-68
2021/01/15 03:38:08;;;;;;;14.77;9.02;;;;;;;1.18;77.96;102380.59;10103144;28;20055;-68
2021/01/15 03:43:15;;;;;;;15.45;8.73;;;;;;;1.23;77.98;102378.06;10100205;28;20082;-70
2021/01/15 03:48:12;;;;;;;16.80;8.75;;;;;;;1.20;78.09;102378.50;10104657;28;20054;-70
2021/01/15 03:53:09;;;;;;;13.85;7.68;;;;;;;1.05;77.83;102381.47;10100440;28;20066;-69
2021/01/15 03:58:05;;;;;;;16.92;8.10;;;;;;;1.09;78.03;102376.47;10107088;28;20044;-70
2021/01/15 04:03:01;;;;;;;13.57;8.52;;;;;;;1.02;78.00;102371.97;10105245;28;20113;-69
2021/01/15 04:07:57;;;;;;;14.98;7.57;;;;;;;1.20;77.66;102373.13;10100612;28;20055;-67
2021/01/15 04:12:53;;;;;;;15.27;7.53;;;;;;;1.20;77.13;102373.13;10101399;28;20054;-69
2021/01/15 04:17:49;;;;;;;14.25;7.18;;;;;;;1.20;77.00;102375.81;10092687;28;20109;-68
2021/01/15 04:22:47;;;;;;;18.58;7.13;;;;;;;1.22;76.89;102376.44;10097213;28;20047;-70
2021/01/15 04:27:44;;;;;;;14.73;7.03;;;;;;;1.18;76.61;102372.50;10094215;28;20133;-70
2021/01/15 04:32:44;;;;;;;14.30;7.30;;;;;;;1.23;76.86;102367.28;10105510;28;20121;-69
2021/01/15 04:37:41;;;;;;;15.75;8.15;;;;;;;1.05;76.83;102368.00;10112559;28;20058;-70
2021/01/15 04:42:43;;;;;;;14.48;6.85;;;;;;;1.18;76.34;102375.19;10105016;28;20072;-69
2021/01/15 04:47:41;;;;;;;14.27;7.20;;;;;;;1.18;76.42;102367.13;10097229;28;20047;-68
2021/01/15 04:52:45;;;;;;;14.15;6.55;;;;;;;1.09;76.27;102379.16;10109623;28;20501;-68
2021/01/15 04:57:42;;;;;;;11.40;6.65;;;;;;;1.08;76.75;102383.75;10095286;28;20117;-68
2021/01/15 05:02:44;;;;;;;11.18;6.72;;;;;;;1.09;76.48;102381.88;10104078;28;20078;-69
2021/01/15 05:07:56;;;;;;;13.75;6.68;;;;;;;1.11;75.72;102390.56;10111311;28;20145;-69
2021/01/15 05:12:55;;;;;;;11.63;6.57;;;;;;;0.95;76.14;102392.72;10090591;28;20062;-71
2021/01/15 05:17:53;;;;;;;11.32;6.53;;;;;;;0.85;75.95;102397.69;10093956;28;20047;-70
2021/01/15 05:22:49;;;;;;;12.30;6.85;;;;;;;0.73;75.48;102396.69;10099911;28;20050;-68
2021/01/15 05:27:45;;;;;;;11.85;6.32;;;;;;;0.79;75.34;102403.91;10097356;28;20055;-70
2021/01/15 05:32:42;;;;;;;11.48;6.43;;;;;;;0.71;75.50;102415.75;10098209;28;20055;-69
2021/01/15 05:37:38;;;;;;;12.20;7.03;;;;;;;0.74;75.31;102417.19;10102851;28;20058;-68
2021/01/15 05:42:49;;;;;;;12.00;6.97;;;;;;;0.63;75.85;102422.19;10108081;28;20054;-67
2021/01/15 05:47:48;;;;;;;15.38;7.13;;;;;;;0.66;75.49;102420.13;10098701;28;20567;-68
2021/01/15 05:52:58;;;;;;;13.52;7.45;;;;;;;0.79;74.88;102426.31;10100237;28;20158;-68
2021/01/15 05:57:54;;;;;;;11.82;7.47;;;;;;;0.79;74.44;102430.84;10100621;28;20050;-67
2021/01/15 06:02:54;;;;;;;15.40;8.05;;;;;;;0.58;73.47;102431.91;10101012;28;20413;-67
2021/01/15 06:07:55;;;;;;;14.60;6.82;;;;;;;0.75;73.66;102445.78;10098682;28;20047;-67
2021/01/15 06:12:53;;;;;;;13.95;7.43;;;;;;;0.72;74.49;102440.81;10098795;28;20046;-66
2021/01/15 06:17:52;;;;;;;16.45;8.35;;;;;;;0.79;73.48;102447.00;10086147;28;20419;-66
2021/01/15 06:22:52;;;;;;;13.32;7.80;;;;;;;0.74;72.91;102449.50;10094877;28;20051;-66
2021/01/15 06:27:51;;;;;;;16.02;8.50;;;;;;;0.76;73.15;102452.81;10081270;28;20057;-68
2021/01/15 06:32:47;;;;;;;12.52;7.35;;;;;;;0.79;73.42;102452.38;10083747;28;20117;-66
2021/01/15 06:37:44;;;;;;;20.30;9.05;;;;;;;0.57;74.29;102449.13;10107264;28;20065;-66
2021/01/15 06:42:46;;;;;;;21.42;8.95;;;;;;;0.43;74.61;102453.66;10091697;28;20556;-66
2021/01/15 06:47:46;;;;;;;14.65;9.30;;;;;;;0.72;74.69;102462.34;10100432;28;20051;-67
2021/01/15 06:52:50;;;;;;;14.38;8.20;;;;;;;0.67;73.83;102462.13;10094177;28;20062;-66
2021/01/15 06:57:48;;;;;;;;;;;;;;;0.72;73.58;102465.03;10094703;28;20043;-67
2021/01/15 07:03:23;;;;;;;16.60;8.40;;;;;;;0.53;73.25;102467.53;10095731;28;19922;-67
2021/01/15 07:08:23;;;;;;;16.92;8.90;;;;;;;0.51;73.11;102471.47;10068631;28;20100;-67
2021/01/15 07:13:28;;;;;;;15.45;9.18;;;;;;;0.38;73.55;102456.16;10089706;28;20633;-67
2021/01/15 07:18:31;;;;;;;17.10;8.73;;;;;;;0.43;74.09;102477.91;10087597;28;20127;-66
2021/01/15 07:23:53;;;;;;;14.55;8.65;;;;;;;0.30;73.64;102485.94;10096121;28;20139;-66
2021/01/15 07:28:57;;;;;;;14.75;8.02;;;;;;;0.30;72.87;102491.34;10093277;28;20050;-66
2021/01/15 07:34:03;;;;;;;16.48;9.25;;;;;;;0.40;72.92;102497.16;10094756;28;20444;-67
2021/01/15 07:39:22;;;;;;;16.55;8.57;;;;;;;0.32;72.83;102500.03;10094190;28;20074;-66
2021/01/15 07:44:21;;;;;;;15.73;9.20;;;;;;;0.26;72.90;102507.06;10094096;28;20097;-67
2021/01/15 07:49:18;;;;;;;16.30;9.15;;;;;;;0.22;73.07;102515.75;10088120;28;20509;-67
2021/01/15 07:54:49;;;;;;;18.17;9.70;;;;;;;0.39;72.99;102527.78;10106742;28;20062;-66
2021/01/15 07:59:46;;;;;;;15.60;9.13;;;;;;;0.26;72.35;102527.78;10091061;28;20533;-67
2021/01/15 08:04:42;;;;;;;14.68;8.85;;;;;;;0.32;72.31;102529.63;10096342;28;20054;-66
2021/01/15 08:09:39;;;;;;;14.95;8.80;;;;;;;0.33;72.90;102528.63;10097540;28;20134;-65
2021/01/15 08:14:35;;;;;;;17.45;9.60;;;;;;;0.33;72.64;102534.00;10101227;28;20559;-66
2021/01/15 08:19:37;;;;;;;19.75;11.07;;;;;;;0.28;73.16;102536.44;10093997;28;20137;-66
2021/01/15 08:24:50;;;;;;;20.90;10.20;;;;;;;0.04;74.84;102541.38;10103821;28;20498;-66
2021/01/15 08:29:46;;;;;;;18.05;10.82;;;;;;;0.04;74.64;102535.16;10103595;28;20054;-66
2021/01/15 08:34:44;;;;;;;18.23;10.30;;;;;;;0.07;75.03;102535.59;10104246;28;20050;-65
2021/01/15 08:39:47;;;;;;;19.42;10.18;;;;;;;0.09;75.13;102538.06;10105511;28;20096;-65
2021/01/15 08:44:47;;;;;;;18.73;10.82;;;;;;;0.13;74.98;102545.53;10108336;28;20043;-66
2021/01/15 08:49:57;;;;;;;18.98;10.52;;;;;;;0.19;74.94;102552.78;10100806;28;20109;-65
2021/01/15 08:54:55;;;;;;;21.20;10.48;;;;;;;0.24;74.91;102552.19;10102816;28;20123;-66
2021/01/15 08:59:51;;;;;;;19.08;10.73;;;;;;;0.13;74.41;102558.97;10111715;28;20054;-66
2021/01/15 09:04:48;;;;;;;18.83;10.93;;;;;;;0.30;74.21;102561.28;10111058;28;20046;-66
2021/01/15 09:09:44;;;;;;;20.10;11.50;;;;;;;-0.02;74.52;102569.09;10099234;28;20055;-66
2021/01/15 09:14:41;;;;;;;22.42;10.40;;;;;;;-0.07;74.17;102571.53;10100758;28;20053;-66
2021/01/15 09:19:38;;;;;;;20.02;10.73;;;;;;;0.02;74.39;102575.69;10109233;28;20074;-66
2021/01/15 09:24:36;;;;;;;19.20;10.55;;;;;;;0.14;74.23;102579.47;10101439;28;20059;-66
2021/01/15 09:29:34;;;;;;;18.15;9.93;;;;;;;-0.02;73.97;102590.59;10097777;28;20541;-65
2021/01/15 09:34:31;;;;;;;17.10;10.25;;;;;;;0.15;74.10;102589.19;10097894;28;20512;-66
2021/01/15 09:39:27;;;;;;;18.52;10.27;;;;;;;0.19;74.07;102592.31;10100963;28;20074;-65
2021/01/15 09:44:26;;;;;;;19.58;10.52;;;;;;;0.13;73.79;102599.31;10101312;28;20449;-66
2021/01/15 09:49:22;;;;;;;17.77;10.20;;;;;;;0.26;73.38;102608.50;10101219;28;20464;-66
2021/01/15 09:54:19;;;;;;;17.50;10.35;;;;;;;0.05;73.26;102607.59;10098334;28;20047;-66
2021/01/15 09:59:17;;;;;;;16.88;9.65;;;;;;;0.08;72.76;102615.25;10104105;28;20524;-66
2021/01/15 10:04:14;;;;;;;19.10;10.60;;;;;;;0.02;72.86;102616.03;10103588;28;20046;-66
2021/01/15 10:09:12;;;;;;;18.35;10.18;;;;;;;0.05;73.20;102618.34;10099788;28;20154;-66
2021/01/15 10:14:10;;;;;;;18.95;10.45;;;;;;;0.14;73.42;102621.66;10099376;28;20062;-66
2021/01/15 10:19:07;;;;;;;18.02;8.45;;;;;;;0.05;72.71;102626.41;10099762;28;20529;-66
2021/01/15 10:24:03;;;;;;;18.63;10.45;;;;;;;0.08;72.81;102631.38;10096845;28;20051;-66
2021/01/15 10:29:05;;;;;;;16.35;9.35;;;;;;;0.05;72.58;102634.47;10101495;28;20054;-67
2021/01/15 10:34:03;;;;;;;16.05;9.40;;;;;;;-0.01;72.67;102625.34;10099799;28;20140;-66
2021/01/15 10:38:59;;;;;;;15.98;8.55;;;;;;;0.24;73.00;102635.59;10098450;28;20133;-67
2021/01/15 10:43:56;;;;;;;19.25;9.18;;;;;;;0.00;71.97;102626.19;10101202;28;20072;-66
2021/01/15 10:48:52;;;;;;;16.63;9.05;;;;;;;0.11;72.40;102633.66;10103207;28;20713;-66
2021/01/15 10:53:49;;;;;;;16.77;9.40;;;;;;;0.11;71.96;102628.28;10104749;28;20042;-66
2021/01/15 10:58:45;;;;;;;15.82;7.63;;;;;;;-0.02;71.41;102629.06;10102191;28;20657;-66
2021/01/15 11:03:43;;;;;;;13.38;7.80;;;;;;;0.04;72.34;102627.44;10101032;28;20043;-66
2021/01/15 11:08:39;;;;;;;14.23;8.98;;;;;;;0.16;71.66;102631.22;10091011;28;20125;-66
2021/01/15 11:13:35;;;;;;;14.90;8.57;;;;;;;0.04;72.11;102627.44;10095776;28;20050;-67
2021/01/15 11:18:31;;;;;;;13.20;7.40;;;;;;;0.32;72.11;102631.88;10098158;28;20147;-66
2021/01/15 11:23:27;;;;;;;17.50;8.45;;;;;;;0.12;72.07;102629.13;10088208;28;20043;-65
2021/01/15 11:28:23;;;;;;;14.48;8.23;;;;;;;0.27;71.50;102631.66;10095733;28;20046;-66
2021/01/15 11:33:19;;;;;;;13.55;7.88;;;;;;;0.17;71.43;102627.50;10082134;28;20420;-66
2021/01/15 11:38:17;;;;;;;14.57;8.65;;;;;;;0.18;71.57;102634.50;10094144;28;20586;-66
2021/01/15 11:43:13;;;;;;;16.15;8.32;;;;;;;0.36;71.75;102630.44;10088668;28;20114;-66
2021/01/15 11:48:09;;;;;;;13.88;7.13;;;;;;;0.26;70.35;102635.41;10081822;28;20051;-66
2021/01/15 11:53:05;;;;;;;11.48;6.53;;;;;;;0.18;71.05;102633.69;10084289;28;20139;-66
2021/01/15 11:58:01;;;;;;;13.38;7.68;;;;;;;0.06;71.27;102629.94;10079578;28;20490;-67
2021/01/15 12:02:58;;;;;;;14.75;8.20;;;;;;;0.32;70.91;102635.38;10090306;28;20035;-67
2021/01/15 12:07:54;;;;;;;13.80;6.47;;;;;;;0.24;70.37;102629.38;10092195;28;20210;-66
2021/01/15 12:12:50;;;;;;;13.27;6.68;;;;;;;0.18;70.49;102622.94;10094849;28;20520;-66
2021/01/15 12:17:47;;;;;;;12.73;5.85;;;;;;;0.23;69.73;102619.63;10091793;28;20039;-66
2021/01/15 12:22:44;;;;;;;15.00;6.85;;;;;;;0.17;70.00;102616.72;10099992;28;20047;-66
2021/01/15 12:27:40;;;;;;;8.73;4.28;;;;;;;-0.01;69.54;102624.50;10090472;28;20162;-66
2021/01/15 12:32:36;;;;;;;11.18;5.68;;;;;;;0.11;68.94;102622.91;10093458;28;20050;-66
2021/01/15 12:37:32;;;;;;;11.20;6.05;;;;;;;0.25;69.92;102633.72;10088525;28;20113;-66
2021/01/15 12:42:28;;;;;;;10.60;6.25;;;;;;;-0.09;68.90;102627.38;10096203;28;20054;-66
2021/01/15 12:47:24;;;;;;;9.13;4.78;;;;;;;0.01;68.32;102622.47;10099916;28;20417;-66
2021/01/15 12:52:20;;;;;;;10.10;4.18;;;;;;;-0.02;67.87;102622.88;10100771;28;20068;-67
2021/01/15 12:57:23;;;;;;;8.23;4.60;;;;;;;0.04;68.11;102624.75;10098947;28;20054;-67
2021/01/15 13:02:19;;;;;;;8.90;5.15;;;;;;;-0.01;67.62;102629.91;10104347;28;20105;-67
2021/01/15 13:07:15;;;;;;;10.70;5.35;;;;;;;0.01;67.81;102627.84;10103968;28;20042;-67
2021/01/15 13:12:11;;;;;;;9.40;5.25;;;;;;;0.05;68.25;102634.47;10102878;28;20075;-67
2021/01/15 13:17:08;;;;;;;10.38;5.28;;;;;;;0.11;67.45;102641.72;10103584;28;20042;-68
2021/01/15 13:22:05;;;;;;;9.43;4.75;;;;;;;0.07;68.34;102648.56;10103032;28;20047;-66
2021/01/15 13:27:01;;;;;;;10.75;4.63;;;;;;;-0.06;67.88;102648.50;10106046;28;20047;-66
2021/01/15 13:31:57;;;;;;;11.05;5.45;;;;;;;-0.15;69.03;102655.06;10100249;28;20047;-67
2021/01/15 13:37:01;;;;;;;10.57;4.80;;;;;;;0.14;68.54;102654.81;10101198;28;20058;-67
2021/01/15 13:41:57;;;;;;;10.18;5.72;;;;;;;0.33;68.48;102657.78;10104276;28;20039;-66
2021/01/15 13:46:53;;;;;;;9.23;4.97;;;;;;;0.37;69.11;102653.63;10108591;28;20528;-66
2021/01/15 13:51:52;;;;;;;8.40;4.82;;;;;;;0.44;69.08;102659.03;10092984;28;20043;-67
2021/01/15 13:56:48;;;;;;;8.20;4.25;;;;;;;0.50;69.13;102664.44;10098534;28;20504;-67
2021/01/15 14:01:44;;;;;;;8.50;3.80;;;;;;;0.81;72.17;102665.75;10096754;28;20097;-67
2021/01/15 14:06:40;;;;;;;7.28;2.70;;;;;;;0.67;69.56;102669.44;10107743;28;20473;-67
2021/01/15 14:11:37;;;;;;;6.50;2.95;;;;;;;0.54;65.90;102676.47;10094844;28;20047;-67
2021/01/15 14:16:33;;;;;;;4.50;2.38;;;;;;;0.80;72.06;102677.56;10106897;28;20456;-67
2021/01/15 14:21:30;;;;;;;5.53;2.50;;;;;;;0.35;63.84;102677.25;10103546;28;20101;-67
2021/01/15 14:26:26;;;;;;;5.35;2.40;;;;;;;0.33;64.31;102680.13;10096203;28;20042;-67
2021/01/15 14:31:23;;;;;;;5.63;2.28;;;;;;;0.66;70.45;102684.78;10084598;28;20043;-67
2021/01/15 14:36:19;;;;;;;5.00;2.03;;;;;;;0.70;74.38;102686.03;10092489;28;20063;-66
2021/01/15 14:41:15;;;;;;;4.60;1.90;;;;;;;0.82;73.16;102691.66;10088753;28;20047;-65
2021/01/15 14:46:11;;;;;;;7.00;2.08;;;;;;;0.60;70.08;102702.59;10093330;28;20089;-68
2021/01/15 14:51:09;;;;;;;6.18;2.38;;;;;;;0.30;64.26;102710.13;10094962;28;20062;-67
2021/01/15 14:56:05;;;;;;;7.55;2.10;;;;;;;-0.01;61.94;102708.72;10090789;28;20043;-68
2021/01/15 15:01:01;;;;;;;3.65;1.60;;;;;;;-0.07;61.49;102711.34;10095276;28;20039;-67
2021/01/15 15:05:57;;;;;;;7.82;2.50;;;;;;;-0.16;61.16;102723.28;10082853;28;20675;-67
2021/01/15 15:10:53;;;;;;;8.00;2.10;;;;;;;-0.37;61.28;102743.00;10078626;28;20139;-67
2021/01/15 15:15:49;;;;;;;6.30;2.17;;;;;;;-0.33;59.59;102738.91;10086098;28;20054;-67
2021/01/15 15:20:45;;;;;;;5.43;2.00;;;;;;;0.12;64.96;102737.56;10081762;28;20039;-67
2021/01/15 15:25:41;;;;;;;4.78;1.50;;;;;;;-0.26;60.50;102751.34;10082352;28;20102;-66
2021/01/15 15:30:39;;;;;;;5.43;1.80;;;;;;;-0.38;59.41;102761.00;10107152;28;20114;-65
2021/01/15 15:35:35;;;;;;;3.75;1.63;;;;;;;-0.12;61.56;102756.84;10099031;28;20352;-67
2021/01/15 15:40:31;;;;;;;5.72;2.03;;;;;;;-0.17;59.47;102767.34;10096051;28;20134;-66
2021/01/15 15:45:27;;;;;;;7.07;1.73;;;;;;;-0.06;58.22;102772.19;10094351;28;20069;-66
2021/01/15 15:50:23;;;;;;;5.03;1.38;;;;;;;0.09;58.96;102775.59;10088693;28;20050;-67
2021/01/15 15:55:20;;;;;;;4.72;1.48;;;;;;;-0.42;57.32;102778.53;10091154;28;20561;-67
2021/01/15 16:00:17;;;;;;;3.60;1.55;;;;;;;-0.11;58.40;102771.97;10100564;28;20074;-66
2021/01/15 16:05:13;;;;;;;7.93;1.80;;;;;;;-0.17;57.86;102767.34;10094257;28;20870;-67
2021/01/15 16:10:11;;;;;;;4.50;1.63;;;;;;;0.00;60.47;102774.13;10104280;28;20054;-67
2021/01/15 16:15:07;;;;;;;6.45;1.52;;;;;;;-0.43;56.83;102776.88;10094057;28;20074;-65
2021/01/15 16:20:05;;;;;;;4.90;1.63;;;;;;;-0.36;56.59;102783.13;10097856;28;20055;-67
2021/01/15 16:25:02;;;;;;;4.40;1.98;;;;;;;-0.21;58.53;102780.34;10091243;28;20544;-66
2021/01/15 16:29:59;;;;;;;4.68;2.10;;;;;;;-0.39;58.29;102788.91;10101516;28;20051;-66
2021/01/15 16:34:55;;;;;;;6.55;1.60;;;;;;;-0.40;58.26;102784.53;10099942;28;20044;-68
2021/01/15 16:39:52;;;;;;;3.83;1.60;;;;;;;-0.47;56.76;102789.84;10109468;28;20106;-68
2021/01/15 16:44:49;;;;;;;3.92;1.67;;;;;;;-0.53;57.94;102781.75;10105203;28;20070;-67
2021/01/15 16:49:46;;;;;;;5.05;2.22;;;;;;;-0.49;57.87;102778.50;10108171;28;20118;-66
2021/01/15 16:54:42;;;;;;;3.83;1.92;;;;;;;-0.33;57.76;102777.38;10110172;28;20417;-66
2021/01/15 16:59:38;;;;;;;9.52;2.92;;;;;;;-0.36;57.56;102777.75;10105012;28;20051;-68
2021/01/15 17:04:34;;;;;;;5.32;1.98;;;;;;;-0.20;57.24;102773.97;10101346;28;20504;-67
2021/01/15 17:09:30;;;;;;;5.03;1.30;;;;;;;-0.24;57.03;102780.75;10096275;28;20088;-66
2021/01/15 17:14:26;;;;;;;6.20;1.65;;;;;;;-0.27;57.39;102770.38;10091601;28;20047;-66
2021/01/15 17:19:23;;;;;;;5.47;2.03;;;;;;;-0.25;56.95;102769.16;10098071;28;20046;-67
2021/01/15 17:24:19;;;;;;;3.60;1.70;;;;;;;-0.21;56.75;102766.91;10089827;28;20050;-66
2021/01/15 17:29:15;;;;;;;5.82;2.35;;;;;;;-0.20;56.25;102770.44;10088634;28;20097;-67
2021/01/15 17:34:16;;;;;;;6.82;2.58;;;;;;;-0.09;57.06;102780.66;10093797;28;20043;-66
2021/01/15 17:39:17;;;;;;;6.63;2.30;;;;;;;-0.13;56.57;102777.53;10095173;28;20758;-66
2021/01/15 17:44:13;;;;;;;9.05;3.30;;;;;;;-0.09;57.04;102784.19;10090416;28;20524;-66
2021/01/15 17:49:09;;;;;;;6.88;2.75;;;;;;;-0.34;57.53;102775.72;10087009;28;20057;-66
2021/01/15 17:54:06;;;;;;;5.90;2.47;;;;;;;-0.27;56.95;102787.34;10084285;28;20062;-66
2021/01/15 17:59:02;;;;;;;6.65;2.22;;;;;;;-0.29;57.50;102792.09;10089445;28;20051;-68
2021/01/15 18:03:58;;;;;;;8.82;2.90;;;;;;;-0.40;58.00;102792.59;10093239;28;20047;-67
2021/01/15 18:08:54;;;;;;;10.02;4.53;;;;;;;-0.39;57.40;102799.66;10085770;28;20535;-66
2021/01/15 18:13:52;;;;;;;6.90;2.95;;;;;;;-0.25;58.15;102789.84;10098834;28;20126;-67
2021/01/15 18:18:51;;;;;;;8.75;3.13;;;;;;;-0.32;58.09;102795.16;10086472;28;20046;-67
2021/01/15 18:23:47;;;;;;;13.13;3.13;;;;;;;-0.37;57.89;102791.38;10088856;28;20047;-65
2021/01/15 18:28:43;;;;;;;6.55;2.65;;;;;;;-0.28;58.67;102791.06;10099308;28;20050;-67
2021/01/15 18:33:40;;;;;;;5.07;2.15;;;;;;;-0.38;58.38;102787.88;10095143;28;20078;-66
2021/01/15 18:38:37;;;;;;;12.90;3.47;;;;;;;-0.35;58.27;102800.91;10085955;28;20055;-67
2021/01/15 18:43:33;;;;;;;5.97;2.60;;;;;;;-0.37;58.47;102791.38;10100192;28;20051;-67
2021/01/15 18:48:29;;;;;;;11.27;3.17;;;;;;;-0.38;59.03;102793.25;10092232;28;20095;-68
2021/01/15 18:53:25;;;;;;;6.72;3.25;;;;;;;-0.30;59.22;102795.81;10081242;28;20055;-64
2021/01/15 18:58:21;;;;;;;7.60;2.97;;;;;;;-0.30;58.97;102787.75;10090731;28;20137;-67
2021/01/15 19:03:17;;;;;;;9.02;3.35;;;;;;;-0.32;59.32;102792.47;10099612;28;20472;-67
2021/01/15 19:08:13;;;;;;;8.32;3.88;;;;;;;-0.43;58.97;102798.38;10102023;28;20137;-66
2021/01/15 19:13:09;;;;;;;10.88;4.10;;;;;;;-0.43;59.05;102796.50;10088856;28;20047;-65
2021/01/15 19:18:10;;;;;;;11.07;4.13;;;;;;;-0.40;59.31;102792.59;10099158;28;20430;-65
2021/01/15 19:23:08;;;;;;;7.28;3.42;;;;;;;-0.22;59.23;102800.22;10102429;28;20041;-67
2021/01/15 19:28:05;;;;;;;6.03;2.63;;;;;;;-0.36;58.60;102799.25;10095002;28;20517;-65
2021/01/15 19:33:04;;;;;;;9.30;2.83;;;;;;;-0.18;58.61;102800.66;10097151;28;20127;-66
2021/01/15 19:38:00;;;;;;;12.98;5.72;;;;;;;-0.20;59.39;102802.72;10113569;28;20073;-67
2021/01/15 19:43:06;;;;;;;6.32;3.13;;;;;;;-0.33;59.26;102809.63;10100000;28;20505;-67
2021/01/15 19:48:02;;;;;;;6.85;3.20;;;;;;;-0.42;59.41;102810.78;10093241;28;20051;-67
2021/01/15 19:53:16;;;;;;;7.90;3.33;;;;;;;-0.30;60.06;102809.25;10099958;28;20066;-65
2021/01/15 19:58:12;;;;;;;7.93;3.03;;;;;;;-0.46;60.07;102806.84;10091302;28;20587;-67
2021/01/15 20:03:13;;;;;;;6.65;2.60;;;;;;;-0.39;59.67;102810.41;10089334;28;20043;-67
2021/01/15 20:08:12;;;;;;;8.65;3.65;;;;;;;-0.58;60.05;102806.53;10091239;28;20053;-68
2021/01/15 20:13:11;;;;;;;9.55;3.97;;;;;;;-0.41;60.33;102801.72;10088691;28;20061;-67
2021/01/15 20:18:09;;;;;;;9.90;3.22;;;;;;;-0.39;60.16;102799.66;10088356;28;20051;-67
2021/01/15 20:23:06;;;;;;;7.03;3.67;;;;;;;-0.43;60.44;102799.19;10085677;28;20145;-65
2021/01/15 20:28:09;;;;;;;7.75;3.58;;;;;;;-0.41;60.82;102796.34;10093266;28;20082;-64
2021/01/15 20:33:07;;;;;;;10.82;3.97;;;;;;;-0.52;61.10;102797.66;10090128;28;20553;-67
2021/01/15 20:38:03;;;;;;;6.85;2.88;;;;;;;-0.48;60.98;102798.13;10095885;28;20381;-67
2021/01/15 20:43:05;;;;;;;8.25;3.10;;;;;;;-0.60;61.11;102796.97;10093121;28;20043;-68
2021/01/15 20:48:01;;;;;;;6.90;3.10;;;;;;;-0.73;61.85;102809.25;10094484;28;20055;-66
2021/01/15 20:52:59;;;;;;;6.93;3.50;;;;;;;-0.67;62.08;102803.13;10089981;28;20698;-68
2021/01/15 20:57:58;;;;;;;10.48;4.82;;;;;;;-0.65;61.96;102806.44;10084390;28;20047;-67
2021/01/15 21:02:59;;;;;;;8.75;4.20;;;;;;;-0.57;61.69;102802.78;10087683;28;20059;-68
2021/01/15 21:07:56;;;;;;;9.85;4.68;;;;;;;-0.64;62.19;102801.91;10090122;28;20050;-67
2021/01/15 21:12:53;;;;;;;6.78;3.45;;;;;;;-0.61;62.02;102800.69;10098424;28;20047;-67
2021/01/15 21:17:50;;;;;;;7.72;3.83;;;;;;;-0.84;62.22;102790.94;10103002;28;20882;-68
2021/01/15 21:22:49;;;;;;;9.38;4.45;;;;;;;-0.75;62.23;102800.53;10098763;28;20050;-67
2021/01/15 21:27:47;;;;;;;8.18;3.97;;;;;;;-0.79;62.00;102796.59;10095258;28;20054;-67
2021/01/15 21:32:47;;;;;;;7.60;3.38;;;;;;;-0.90;63.02;102807.84;10095222;28;20098;-67
2021/01/15 21:37:48;;;;;;;11.60;5.05;;;;;;;-0.78;62.73;102814.38;10096903;28;20062;-67
2021/01/15 21:42:47;;;;;;;8.70;4.40;;;;;;;-0.76;62.53;102808.81;10090097;28;20202;-67
2021/01/15 21:47:44;;;;;;;7.45;3.95;;;;;;;-0.75;62.42;102815.84;10099935;28;20065;-68
2021/01/15 21:52:48;;;;;;;8.57;3.83;;;;;;;-0.81;62.89;102811.22;10116814;28;20519;-67
2021/01/15 21:57:49;;;;;;;11.40;4.90;;;;;;;-0.75;63.20;102815.84;10102337;28;20086;-67
2021/01/15 22:02:50;;;;;;;10.20;4.80;;;;;;;-0.83;62.95;102824.84;10101479;28;20094;-65
2021/01/15 22:08:06;;;;;;;9.20;4.45;;;;;;;-0.87;63.16;102828.94;10089638;28;20135;-64
2021/01/15 22:13:10;;;;;;;10.70;4.55;;;;;;;-0.86;63.37;102827.91;10095312;28;20246;-65
2021/01/15 22:18:09;;;;;;;11.43;6.07;;;;;;;-0.84;63.10;102828.53;10093749;28;20151;-68
2021/01/15 22:23:10;;;;;;;9.52;5.60;;;;;;;-0.86;63.17;102825.22;10089932;28;20047;-69
2021/01/15 22:28:07;;;;;;;12.82;5.07;;;;;;;-0.83;63.13;102830.22;10083030;28;20073;-67
2021/01/15 22:33:08;;;;;;;11.00;5.68;;;;;;;-0.73;62.85;102836.13;10083721;28;20062;-68
2021/01/15 22:38:27;;;;;;;14.80;5.55;;;;;;;-0.97;62.59;102837.31;10094985;28;20047;-68
2021/01/15 22:43:25;;;;;;;10.40;5.70;;;;;;;-0.95;62.84;102831.72;10101361;28;20116;-68
2021/01/15 22:48:22;;;;;;;8.35;4.97;;;;;;;-0.98;62.70;102829.41;10094784;28;20070;-69
2021/01/15 22:53:38;;;;;;;10.57;4.90;;;;;;;-1.03;62.34;102829.16;10098370;28;20476;-67